Time;durP1;ratioP1;P1;durP2;ratioP2;P2;SDS_P1;SDS_P2;PMS_P1;PMS_P2;Temp;Humidity;BMP_temperature;BMP_pressure;BME280_temperature;BME280_humidity;BME280_pressure;Samples;Min_cycle;Max_cycle;Signal;HPM_P1;HPM_P2
2024/04/20 00:01:24;;;;;;;7.72;4.35;;;;;;;6.24;86.37;97351.56;5214308;27;20434;-77
2024/04/20 00:03:50;;;;;;;5.78;4.40;;;;;;;6.11;86.34;97322.47;5228886;27;20004;-76
2024/04/20 00:06:16;;;;;;;7.05;4.40;;;;;;;6.21;85.94;97341.34;5253401;27;20043;-75
2024/04/20 00:08:43;;;;;;;6.57;4.63;;;;;;;6.03;86.82;97333.50;5227889;27;20480;-75
2024/04/20 00:11:09;;;;;;;6.53;4.57;;;;;;;6.15;86.84;97348.47;5216777;27;20082;-75
2024/04/20 00:13:37;;;;;;;5.18;4.22;;;;;;;6.06;87.14;97349.09;5243375;27;20486;-75
2024/04/20 00:16:03;;;;;;;5.22;4.10;;;;;;;6.18;86.90;97350.66;5229539;27;20481;-76
2024/04/20 00:18:29;;;;;;;6.85;4.32;;;;;;;5.94;87.25;97335.75;5243564;27;19999;-77
2024/04/20 00:20:54;;;;;;;8.38;4.70;;;;;;;6.11;86.87;97349.97;5245982;27;20017;-77
2024/04/20 00:23:19;;;;;;;6.22;4.57;;;;;;;6.05;87.53;97363.47;5247440;27;20467;-76
2024/04/20 00:25:45;;;;;;;5.30;3.90;;;;;;;6.16;86.92;97370.69;5245068;27;20007;-77
2024/04/20 00:28:10;;;;;;;5.30;4.30;;;;;;;6.08;86.73;97346.97;5243803;27;20082;-77
2024/04/20 00:30:36;;;;;;;5.63;4.03;;;;;;;6.10;87.33;97355.56;5227403;27;20014;-76
2024/04/20 00:33:01;;;;;;;7.15;4.30;;;;;;;6.13;87.20;97363.13;5222929;27;20007;-75
2024/04/20 00:35:27;;;;;;;8.82;4.95;;;;;;;6.00;87.75;97350.00;5242349;27;19999;-74
2024/04/20 00:37:52;;;;;;;5.47;3.85;;;;;;;6.00;87.20;97345.47;5238695;27;20014;-74
2024/04/20 00:40:17;;;;;;;5.65;4.15;;;;;;;6.18;87.03;97368.59;5231486;27;20018;-74
2024/04/20 00:42:43;;;;;;;5.78;4.07;;;;;;;5.99;87.47;97349.22;5230775;27;20015;-74
2024/04/20 00:45:09;;;;;;;5.43;4.28;;;;;;;6.08;87.08;97363.84;5240148;27;20017;-74
2024/04/20 00:47:35;;;;;;;6.05;4.88;;;;;;;6.21;86.54;97378.78;5223928;27;20019;-74
2024/04/20 00:50:01;;;;;;;8.23;4.95;;;;;;;6.05;87.38;97374.16;5241138;27;20015;-76
2024/04/20 00:52:27;;;;;;;5.15;4.63;;;;;;;5.97;87.38;97371.88;5224262;27;19999;-76
2024/04/20 00:54:52;;;;;;;4.55;3.85;;;;;;;6.05;87.00;97376.84;5235042;27;20003;-77
2024/04/20 00:57:20;;;;;;;6.28;4.35;;;;;;;6.01;87.29;97367.69;5229741;27;20039;-76
2024/04/20 00:59:45;;;;;;;7.95;4.32;;;;;;;6.11;87.61;97390.06;5235892;27;20051;-76
2024/04/20 01:02:11;;;;;;;4.60;4.20;;;;;;;6.13;87.21;97395.19;5183910;27;20011;-76
2024/04/20 01:04:36;;;;;;;5.80;4.22;;;;;;;5.42;87.44;97289.47;5221696;27;20351;-77
2024/04/20 01:07:03;;;;;;;5.00;4.35;;;;;;;5.86;86.99;97367.38;5220298;27;20008;-76
2024/04/20 01:09:28;;;;;;;5.95;4.07;;;;;;;5.89;86.83;97369.56;5235254;27;20008;-76
2024/04/20 01:11:54;;;;;;;5.93;4.40;;;;;;;6.03;86.90;97408.34;5215428;27;20003;-77
2024/04/20 01:14:19;;;;;;;4.55;4.15;;;;;;;6.02;86.54;97390.69;5183392;27;20003;-75
2024/04/20 01:16:44;;;;;;;5.68;4.70;;;;;;;6.07;86.78;97410.31;5232587;27;20049;-76
2024/04/20 01:19:15;;;;;;;4.57;4.13;;;;;;;5.82;87.30;97383.00;5214228;27;20014;-76
2024/04/20 01:21:40;;;;;;;6.05;3.83;;;;;;;5.99;86.71;97385.81;5242836;27;20343;-77
2024/04/20 01:24:10;;;;;;;5.10;4.03;;;;;;;5.96;86.92;97410.31;5233094;27;20003;-77
2024/04/20 01:26:36;;;;;;;6.35;4.20;;;;;;;5.81;86.91;97388.59;5208670;27;20004;-76
2024/04/20 01:29:01;;;;;;;5.88;3.95;;;;;;;6.00;86.84;97422.97;5209360;27;20015;-76
2024/04/20 01:31:27;;;;;;;4.82;3.85;;;;;;;5.96;86.78;97429.03;5247504;27;20003;-74
2024/04/20 01:33:52;;;;;;;4.88;3.47;;;;;;;5.92;86.71;97422.53;5259422;27;20003;-74
2024/04/20 01:36:17;;;;;;;5.47;3.75;;;;;;;5.83;86.92;97408.69;5212739;27;20023;-74
2024/04/20 01:38:43;;;;;;;3.50;3.20;;;;;;;6.05;86.46;97427.63;5233882;27;20078;-74
2024/04/20 01:41:08;;;;;;;3.50;3.20;;;;;;;5.89;86.49;97421.13;5208370;27;20348;-76
2024/04/20 01:43:34;;;;;;;3.88;3.30;;;;;;;5.73;86.18;97399.63;5194294;27;20007;-76
2024/04/20 01:45:59;;;;;;;4.07;3.20;;;;;;;5.67;86.94;97403.25;5208294;27;20009;-76
2024/04/20 01:48:24;;;;;;;3.30;3.00;;;;;;;5.83;86.64;97439.94;5222950;27;20081;-76
2024/04/20 01:50:51;;;;;;;4.15;3.13;;;;;;;5.85;86.84;97448.56;5201966;27;20014;-74
2024/04/20 01:53:17;;;;;;;5.32;3.22;;;;;;;5.80;87.06;97462.59;5238137;27;20003;-74
2024/04/20 01:55:42;;;;;;;3.25;2.95;;;;;;;5.88;87.12;97458.78;5220638;27;20017;-73
2024/04/20 01:58:07;;;;;;;3.05;2.67;;;;;;;5.81;86.72;97453.50;5217451;27;20463;-74
2024/04/20 02:00:33;;;;;;;4.38;2.85;;;;;;;5.85;86.41;97456.56;5228414;27;20073;-76
2024/04/20 02:02:58;;;;;;;4.10;3.45;;;;;;;5.67;86.71;97440.63;5214458;27;20359;-75
2024/04/20 02:05:23;;;;;;;3.33;2.67;;;;;;;5.72;86.08;97443.44;5227485;27;20015;-75
2024/04/20 02:07:49;;;;;;;3.95;2.83;;;;;;;5.83;86.59;97477.34;5241983;27;20018;-75
2024/04/20 02:10:14;;;;;;;3.20;2.83;;;;;;;5.91;86.65;97469.00;5228389;27;20053;-75
2024/04/20 02:12:40;;;;;;;3.08;2.78;;;;;;;5.88;86.50;97485.50;5240596;27;20340;-75
2024/04/20 02:15:05;;;;;;;2.75;2.38;;;;;;;5.96;85.83;97493.16;5219635;27;20004;-75
2024/04/20 02:17:31;;;;;;;2.88;2.60;;;;;;;5.92;85.10;97492.00;5227566;27;20015;-75
2024/04/20 02:19:57;;;;;;;2.20;1.95;;;;;;;5.90;84.61;97472.72;5234478;27;20007;-75
2024/04/20 02:22:22;;;;;;;2.38;2.17;;;;;;;5.81;84.87;97487.44;5226798;27;20022;-74
2024/04/20 02:24:47;;;;;;;2.55;2.25;;;;;;;5.82;85.34;97491.72;5240542;27;20003;-75
2024/04/20 02:27:13;;;;;;;2.38;2.17;;;;;;;5.74;84.87;97492.09;5200407;27;20025;-74
2024/04/20 02:29:38;;;;;;;3.25;2.30;;;;;;;5.76;84.92;97504.16;5229105;27;20007;-75
2024/04/20 02:32:04;;;;;;;2.25;2.05;;;;;;;5.82;84.81;97507.75;5242741;27;20058;-75
2024/04/20 02:34:29;;;;;;;2.40;2.20;;;;;;;5.73;84.84;97493.94;5219737;27;20470;-77
2024/04/20 02:37:11;;;;;;;2.78;2.00;;;;;;;5.90;83.59;97507.47;5260796;27;20509;-75
2024/04/20 02:39:40;;;;;;;2.20;2.00;;;;;;;5.76;84.26;97498.00;5223667;27;20032;-75
2024/04/20 02:42:06;;;;;;;2.17;1.98;;;;;;;5.86;84.87;97531.16;5219747;27;20007;-76
2024/04/20 02:44:32;;;;;;;3.42;2.05;;;;;;;5.88;84.65;97522.91;5238601;27;20015;-75
2024/04/20 02:46:57;;;;;;;2.40;2.20;;;;;;;5.92;84.43;97534.75;5185290;27;20018;-75
2024/04/20 02:49:23;;;;;;;2.45;2.22;;;;;;;5.83;84.58;97518.25;5259035;21;20673;-73
2024/04/20 02:51:48;;;;;;;2.40;2.20;;;;;;;5.86;85.13;97525.00;5223797;27;20081;-74
2024/04/20 02:54:14;;;;;;;2.30;2.10;;;;;;;5.78;84.98;97522.63;5240336;27;20006;-73
2024/04/20 02:56:40;;;;;;;2.20;2.05;;;;;;;5.90;85.25;97528.84;5237865;27;20473;-73
2024/04/20 02:59:05;;;;;;;2.45;2.25;;;;;;;5.78;85.44;97527.97;5255918;27;20011;-73
2024/04/20 03:01:31;;;;;;;3.22;2.40;;;;;;;5.81;85.09;97522.19;5285183;27;20007;-73
2024/04/20 03:03:56;;;;;;;2.80;2.60;;;;;;;5.74;85.39;97516.13;5253807;27;20536;-74
2024/04/20 03:06:23;;;;;;;2.70;2.50;;;;;;;5.72;85.42;97518.22;5248921;27;20057;-74
2024/04/20 03:08:49;;;;;;;2.97;2.78;;;;;;;5.72;85.38;97523.56;5269897;27;20026;-74
2024/04/20 03:11:14;;;;;;;3.15;2.85;;;;;;;5.77;86.17;97534.34;5280134;27;20068;-75
2024/04/20 03:13:40;;;;;;;3.05;2.80;;;;;;;5.70;85.38;97517.59;5256458;27;20008;-74
2024/04/20 03:16:05;;;;;;;3.38;3.05;;;;;;;5.84;85.39;97548.41;5263343;27;20015;-75
2024/04/20 03:18:35;;;;;;;3.50;3.20;;;;;;;5.70;85.57;97541.66;5248214;27;20458;-74
2024/04/20 03:21:01;;;;;;;3.42;2.67;;;;;;;5.88;85.28;97554.97;5238253;27;20419;-74
2024/04/20 03:23:30;;;;;;;3.47;3.17;;;;;;;5.83;85.19;97573.53;5274600;27;20516;-74
2024/04/20 03:25:55;;;;;;;4.25;2.80;;;;;;;5.76;85.11;97584.31;5256732;27;20215;-74
2024/04/20 03:28:21;;;;;;;2.83;2.63;;;;;;;5.78;84.57;97563.53;5230871;27;20003;-73
2024/04/20 03:30:46;;;;;;;3.05;2.45;;;;;;;5.78;84.52;97576.06;5253404;27;20003;-74
2024/04/20 03:33:13;;;;;;;2.78;2.50;;;;;;;5.88;83.99;97587.84;5231378;27;20010;-73
2024/04/20 03:35:39;;;;;;;2.80;2.60;;;;;;;5.62;84.33;97571.38;5296679;27;20006;-74
2024/04/20 03:38:04;;;;;;;3.13;2.75;;;;;;;5.70;84.65;97590.56;5253148;27;20007;-73
2024/04/20 03:40:29;;;;;;;2.80;2.50;;;;;;;5.74;84.07;97577.56;5232355;27;20009;-73
2024/04/20 03:42:55;;;;;;;3.58;2.55;;;;;;;5.74;84.29;97601.63;5261609;27;20054;-74
2024/04/20 03:45:20;;;;;;;4.40;2.50;;;;;;;5.67;84.16;97590.22;5258532;27;20003;-73
2024/04/20 03:47:45;;;;;;;2.97;2.70;;;;;;;5.67;84.05;97591.00;5254846;27;20006;-73
2024/04/20 03:50:11;;;;;;;2.83;2.50;;;;;;;5.66;84.26;97588.56;5242325;27;20018;-73
2024/04/20 03:52:36;;;;;;;2.60;2.28;;;;;;;5.68;84.25;97591.81;5228778;27;20003;-73
2024/04/20 03:55:02;;;;;;;3.13;2.75;;;;;;;5.70;83.70;97603.09;5245538;27;19998;-73
2024/04/20 03:57:28;;;;;;;3.45;2.53;;;;;;;5.76;83.24;97620.91;5251846;27;20010;-74
2024/04/20 03:59:54;;;;;;;2.58;2.35;;;;;;;5.75;83.13;97635.28;5265414;27;20011;-73
2024/04/20 04:02:25;;;;;;;2.60;2.40;;;;;;;5.68;82.83;97624.69;5232273;27;20009;-73
2024/04/20 04:04:51;;;;;;;2.63;2.42;;;;;;;5.60;83.39;97615.13;5269809;27;20013;-73
2024/04/20 04:07:16;;;;;;;2.50;2.30;;;;;;;5.62;83.66;97624.78;5258066;27;20039;-74
2024/04/20 04:09:42;;;;;;;2.60;2.40;;;;;;;5.75;83.42;97624.59;5254209;27;20009;-74
2024/04/20 04:12:07;;;;;;;2.58;2.38;;;;;;;5.55;83.66;97631.03;5257483;27;20013;-73
2024/04/20 04:14:33;;;;;;;2.85;2.38;;;;;;;5.67;83.26;97632.94;5275367;27;20038;-74
2024/04/20 04:16:58;;;;;;;2.92;2.60;;;;;;;5.72;83.15;97641.09;5256980;27;20002;-75
2024/04/20 04:19:23;;;;;;;3.10;2.78;;;;;;;5.70;83.29;97637.81;5269536;27;20013;-74
2024/04/20 04:21:49;;;;;;;2.78;2.58;;;;;;;5.49;83.54;97625.78;5266449;27;20042;-74
2024/04/20 04:24:14;;;;;;;2.70;2.50;;;;;;;5.69;83.27;97646.88;5295030;27;20003;-74
2024/04/20 04:26:39;;;;;;;3.10;2.90;;;;;;;5.76;83.41;97660.97;5259305;27;20009;-74
2024/04/20 04:29:05;;;;;;;2.90;2.60;;;;;;;5.78;83.21;97656.22;5252907;27;20104;-74
2024/04/20 04:31:30;;;;;;;3.72;2.75;;;;;;;5.67;83.39;97659.66;5247289;27;20010;-74
2024/04/20 04:33:56;;;;;;;4.57;3.30;;;;;;;5.62;83.20;97646.16;5248856;27;20011;-75
2024/04/20 04:36:21;;;;;;;3.30;3.00;;;;;;;5.62;83.33;97667.53;5260541;27;20017;-74
2024/04/20 04:38:46;;;;;;;3.80;2.58;;;;;;;5.56;83.46;97667.38;5241893;27;20085;-74
2024/04/20 04:41:12;;;;;;;4.20;2.72;;;;;;;5.55;83.67;97668.41;5257226;27;20011;-73
2024/04/20 04:43:39;;;;;;;4.35;2.80;;;;;;;5.71;83.42;97682.19;5263645;27;20451;-73
2024/04/20 04:46:04;;;;;;;4.68;4.28;;;;;;;5.67;83.27;97686.38;5259264;27;19998;-73
2024/04/20 04:48:30;;;;;;;3.72;3.25;;;;;;;5.69;83.42;97686.97;5269198;27;19996;-73
2024/04/20 04:50:55;;;;;;;3.63;3.33;;;;;;;5.59;83.06;97690.97;5258938;27;20009;-73
2024/04/20 04:53:21;;;;;;;3.28;2.97;;;;;;;5.52;83.85;97695.59;5268757;27;20148;-73
2024/04/20 04:55:46;;;;;;;3.50;3.20;;;;;;;5.68;83.82;97709.34;5253347;27;20462;-73
2024/04/20 04:58:12;;;;;;;4.47;3.25;;;;;;;5.55;84.11;97710.34;5275215;27;20069;-74
2024/04/20 05:00:37;;;;;;;3.60;3.30;;;;;;;5.55;84.77;97703.13;5261310;27;20129;-74
2024/04/20 05:03:03;;;;;;;3.88;3.53;;;;;;;5.57;84.69;97717.09;5267508;27;20021;-74
2024/04/20 05:05:29;;;;;;;4.38;3.55;;;;;;;5.55;85.03;97721.03;5290793;27;20070;-75
2024/04/20 05:07:54;;;;;;;5.35;3.47;;;;;;;5.55;84.50;97710.34;5241319;27;20010;-74
2024/04/20 05:10:21;;;;;;;3.80;3.38;;;;;;;5.62;84.58;97720.94;5258003;27;20009;-74
2024/04/20 05:12:47;;;;;;;3.78;3.47;;;;;;;5.60;84.28;97724.66;5240148;27;20474;-74
2024/04/20 05:15:12;;;;;;;4.82;3.53;;;;;;;5.73;84.35;97742.38;5228362;27;20031;-75
2024/04/20 05:17:39;;;;;;;3.97;3.58;;;;;;;5.53;84.47;97713.22;5254964;27;20038;-74
2024/04/20 05:20:06;;;;;;;3.95;3.40;;;;;;;5.68;84.06;97738.75;5247541;27;20061;-75
2024/04/20 05:22:31;;;;;;;3.97;3.55;;;;;;;5.77;83.45;97746.22;5259959;27;20026;-73
2024/04/20 05:24:57;;;;;;;3.63;3.33;;;;;;;5.64;83.31;97725.03;5243287;27;19999;-74
2024/04/20 05:27:22;;;;;;;3.92;3.63;;;;;;;5.64;83.25;97734.88;5242294;27;20017;-74
2024/04/20 05:29:48;;;;;;;4.07;3.42;;;;;;;5.75;82.83;97739.47;5256084;26;19986;-75
2024/04/20 05:32:13;;;;;;;4.30;3.88;;;;;;;5.72;83.06;97759.44;5267293;26;20538;-74
2024/04/20 05:34:39;;;;;;;4.97;3.63;;;;;;;5.71;83.23;97751.66;5255172;26;19998;-74
2024/04/20 05:37:04;;;;;;;4.72;3.67;;;;;;;5.60;82.79;97743.34;5254531;27;20014;-74
2024/04/20 05:39:32;;;;;;;4.10;3.50;;;;;;;5.72;83.17;97758.63;5265009;27;19993;-74
2024/04/20 05:41:58;;;;;;;4.13;3.30;;;;;;;5.64;83.03;97740.22;5267821;27;20003;-74
2024/04/20 05:44:24;;;;;;;5.10;3.80;;;;;;;5.88;82.67;97780.22;5230336;27;20014;-75
2024/04/20 05:46:49;;;;;;;4.43;3.58;;;;;;;5.81;82.96;97767.97;5277533;27;20010;-76
2024/04/20 05:49:15;;;;;;;4.32;3.65;;;;;;;5.82;81.69;97769.59;5243475;27;19998;-74
2024/04/20 05:51:40;;;;;;;4.22;3.75;;;;;;;5.79;82.16;97786.09;5267636;27;20010;-74
2024/04/20 05:54:07;;;;;;;6.10;3.50;;;;;;;5.81;82.35;97789.34;5256713;27;20009;-74
2024/04/20 05:56:32;;;;;;;3.60;3.30;;;;;;;5.84;82.12;97799.56;5240632;27;20124;-74
2024/04/20 05:58:57;;;;;;;4.00;3.58;;;;;;;5.85;81.30;97791.38;5252439;27;20045;-74
2024/04/20 06:01:23;;;;;;;3.20;2.90;;;;;;;5.86;81.06;97824.28;5255910;27;19999;-74
2024/04/20 06:03:48;;;;;;;3.65;2.92;;;;;;;5.92;80.03;97801.97;5246251;27;20013;-73
2024/04/20 06:06:13;;;;;;;3.35;3.05;;;;;;;5.90;80.34;97810.25;5247247;27;20124;-74
2024/04/20 06:08:39;;;;;;;3.42;2.47;;;;;;;5.41;80.88;97795.13;5264868;27;19999;-74
2024/04/20 06:11:05;;;;;;;3.10;2.78;;;;;;;5.76;80.69;97818.59;5236495;27;20339;-74
2024/04/20 06:13:31;;;;;;;3.20;2.90;;;;;;;5.91;80.48;97819.03;5275375;27;20474;-74
2024/04/20 06:15:56;;;;;;;3.65;3.15;;;;;;;5.85;80.58;97825.28;5272652;27;19995;-74
2024/04/20 06:18:22;;;;;;;2.97;2.53;;;;;;;5.83;80.36;97811.31;5272189;27;20076;-74
2024/04/20 06:20:51;;;;;;;2.95;2.70;;;;;;;5.88;79.40;97838.22;5266267;27;20011;-74
2024/04/20 06:23:17;;;;;;;2.63;2.42;;;;;;;6.04;78.58;97840.28;5280975;27;19998;-75
2024/04/20 06:25:46;;;;;;;2.50;2.20;;;;;;;6.02;78.47;97837.03;5261846;27;20521;-74
2024/04/20 06:28:11;;;;;;;5.53;2.30;;;;;;;5.97;78.04;97831.53;5216617;27;20003;-74
2024/04/20 06:30:36;;;;;;;2.50;2.28;;;;;;;6.03;78.79;97852.00;5259292;27;20014;-74
2024/04/20 06:33:02;;;;;;;2.20;2.00;;;;;;;5.87;78.09;97847.25;5200515;27;20013;-73
2024/04/20 06:35:27;;;;;;;2.65;2.40;;;;;;;6.00;77.93;97852.44;5256938;27;20732;-74
2024/04/20 06:37:53;;;;;;;2.42;2.25;;;;;;;6.08;78.07;97849.47;5244433;27;20002;-74
2024/04/20 06:40:18;;;;;;;3.78;2.78;;;;;;;6.11;77.55;97859.72;5253316;27;20358;-74
2024/04/20 06:42:46;;;;;;;2.72;2.53;;;;;;;6.11;76.75;97854.38;5257317;27;20084;-74
2024/04/20 06:45:11;;;;;;;2.80;2.50;;;;;;;5.95;77.25;97871.81;5247416;27;20021;-74
2024/04/20 06:47:37;;;;;;;2.55;2.35;;;;;;;6.01;78.15;97870.13;5200482;27;19999;-74
2024/04/20 06:50:02;;;;;;;3.88;2.63;;;;;;;5.94;77.24;97880.06;5259476;27;20422;-74
2024/04/20 06:52:28;;;;;;;2.33;2.20;;;;;;;5.92;77.16;97874.13;5229750;27;20049;-74
2024/04/20 06:54:53;;;;;;;2.40;2.20;;;;;;;6.12;77.33;97866.69;5238872;27;20307;-74
2024/04/20 06:57:18;;;;;;;2.70;2.50;;;;;;;6.13;77.61;97889.72;5276845;27;20462;-74
2024/04/20 06:59:44;;;;;;;2.58;2.38;;;;;;;6.22;77.18;97885.72;5265607;27;20048;-74
2024/04/20 07:02:09;;;;;;;2.65;2.45;;;;;;;6.02;77.81;97879.78;5265424;27;20003;-74
2024/04/20 07:04:35;;;;;;;2.47;2.28;;;;;;;6.20;76.72;97895.81;5256050;27;20006;-75
2024/04/20 07:07:00;;;;;;;2.20;2.08;;;;;;;6.19;77.11;97902.19;5262142;27;19999;-74
2024/04/20 07:09:26;;;;;;;2.40;2.20;;;;;;;6.25;77.01;97910.13;5225936;27;20081;-74
2024/04/20 07:11:52;;;;;;;2.70;2.20;;;;;;;6.08;76.61;97903.78;5240645;27;20002;-74
2024/04/20 07:14:17;;;;;;;2.72;2.53;;;;;;;6.16;77.21;97916.03;5266332;27;20050;-74
2024/04/20 07:16:46;;;;;;;2.55;2.30;;;;;;;6.28;76.38;97913.41;5269124;27;20002;-74
2024/04/20 07:19:12;;;;;;;2.33;2.20;;;;;;;6.21;76.24;97902.78;5253051;27;20003;-74
2024/04/20 07:21:38;;;;;;;2.38;2.17;;;;;;;6.50;75.52;97920.75;5235430;27;20010;-73
2024/04/20 07:24:07;;;;;;;2.40;2.20;;;;;;;6.45;75.07;97931.28;5232808;27;20035;-74
2024/04/20 07:26:33;;;;;;;2.22;2.03;;;;;;;6.21;74.75;97935.69;5255133;27;20015;-74
2024/04/20 07:29:00;;;;;;;2.40;2.20;;;;;;;6.13;74.75;97948.53;5266761;27;19998;-74
2024/04/20 07:31:25;;;;;;;2.35;2.10;;;;;;;6.23;74.96;97927.47;5267740;27;20074;-74
2024/04/20 07:33:52;;;;;;;3.75;2.33;;;;;;;6.36;75.91;97951.38;5268157;27;20418;-74
2024/04/20 07:36:18;;;;;;;2.78;1.98;;;;;;;6.63;74.74;97955.34;5230881;27;20006;-74
2024/04/20 07:38:43;;;;;;;2.80;2.00;;;;;;;6.60;73.96;97963.84;5255867;27;20462;-74
2024/04/20 07:41:09;;;;;;;2.17;2.00;;;;;;;6.56;73.68;97976.00;5273843;27;20002;-74
2024/04/20 07:43:34;;;;;;;2.75;2.22;;;;;;;6.37;73.88;97960.22;5252198;27;20460;-73
2024/04/20 07:45:59;;;;;;;2.33;2.13;;;;;;;6.44;73.88;97982.34;5223569;27;19999;-74
2024/04/20 07:48:25;;;;;;;3.53;2.13;;;;;;;6.49;72.90;97987.84;5266920;27;20017;-74
2024/04/20 07:50:50;;;;;;;2.83;2.10;;;;;;;6.25;74.46;97985.00;5258574;27;20015;-74
2024/04/20 07:53:15;;;;;;;3.25;2.40;;;;;;;6.28;73.56;98005.94;5248554;27;20018;-74
2024/04/20 07:55:41;;;;;;;4.35;2.10;;;;;;;6.43;73.18;97991.41;5270810;27;20014;-74
2024/04/20 07:58:06;;;;;;;2.42;2.22;;;;;;;6.37;73.21;97990.41;5266321;27;20458;-74
2024/04/20 08:00:32;;;;;;;2.53;2.15;;;;;;;6.55;72.76;98017.19;5232144;27;20003;-74
2024/04/20 08:02:57;;;;;;;2.38;2.17;;;;;;;6.58;71.61;98019.41;5263126;27;20350;-74
2024/04/20 08:05:22;;;;;;;3.40;2.00;;;;;;;6.48;72.26;98000.41;5254641;27;20346;-74
2024/04/20 08:07:48;;;;;;;2.08;1.88;;;;;;;6.50;72.61;98006.34;5272349;27;20015;-74
2024/04/20 08:10:13;;;;;;;1.98;1.88;;;;;;;6.39;72.39;98023.13;5263608;27;20355;-74
2024/04/20 08:12:38;;;;;;;3.53;1.88;;;;;;;6.50;72.51;98025.06;5252861;27;20093;-74
2024/04/20 08:15:04;;;;;;;1.85;1.75;;;;;;;6.51;72.75;98048.09;5247203;27;20015;-74
2024/04/20 08:17:30;;;;;;;2.20;1.95;;;;;;;6.66;72.00;98029.81;5264647;27;20017;-73
2024/04/20 08:19:55;;;;;;;2.33;2.13;;;;;;;6.62;72.71;98033.16;5258095;27;20542;-74
2024/04/20 08:22:21;;;;;;;2.10;1.90;;;;;;;6.63;72.23;98040.97;5264242;27;19998;-74
2024/04/20 08:24:46;;;;;;;2.67;2.28;;;;;;;6.62;71.33;98041.19;5261391;27;20014;-73
2024/04/20 08:27:14;;;;;;;3.10;1.98;;;;;;;6.58;71.26;98056.06;5259251;27;20050;-74
2024/04/20 08:29:40;;;;;;;4.13;2.10;;;;;;;6.48;71.21;98043.19;5257613;27;20081;-74
2024/04/20 08:32:06;;;;;;;2.63;2.25;;;;;;;6.72;71.38;98055.66;5251652;27;20010;-74
2024/04/20 08:34:31;;;;;;;2.20;2.00;;;;;;;6.81;71.87;98065.03;5253523;27;20017;-74
2024/04/20 08:36:56;;;;;;;2.70;2.10;;;;;;;6.95;71.26;98069.19;5260273;26;20003;-74
2024/04/20 08:39:22;;;;;;;2.30;1.90;;;;;;;6.98;70.80;98066.06;5260068;27;20025;-74
2024/04/20 08:42:05;;;;;;;2.20;2.10;;;;;;;6.86;70.54;98073.22;5260105;27;20075;-74
2024/04/20 08:44:30;;;;;;;2.53;2.30;;;;;;;6.95;70.74;98074.53;5253310;27;20010;-74
2024/04/20 08:46:55;;;;;;;2.33;2.13;;;;;;;7.11;70.99;98081.16;5255518;27;20034;-75
2024/04/20 08:49:24;;;;;;;4.03;1.83;;;;;;;7.23;69.52;98089.25;5259531;27;20077;-74
2024/04/20 08:51:50;;;;;;;2.65;2.00;;;;;;;7.22;69.30;98092.97;5256295;27;20080;-74
2024/04/20 08:54:16;;;;;;;2.00;1.80;;;;;;;7.27;69.82;98085.09;5281077;27;20196;-73
2024/04/20 08:56:43;;;;;;;2.58;2.38;;;;;;;7.38;69.01;98103.88;5263287;27;20009;-74
2024/04/20 08:59:08;;;;;;;2.50;1.92;;;;;;;7.10;69.96;98100.13;5294829;21;20006;-77
2024/04/20 09:01:35;;;;;;;1.90;1.80;;;;;;;7.26;68.97;98107.56;5275195;27;20428;-77
2024/04/20 09:04:01;;;;;;;2.20;2.00;;;;;;;7.26;68.76;98104.91;5268835;27;19999;-76
2024/04/20 09:06:27;;;;;;;2.20;2.03;;;;;;;7.12;69.26;98098.84;5263044;27;20071;-77
2024/04/20 09:08:53;;;;;;;2.70;2.15;;;;;;;7.42;69.25;98117.66;5229242;27;19999;-77
2024/04/20 09:11:19;;;;;;;2.15;1.75;;;;;;;7.03;68.50;98086.00;5224405;27;20468;-76
2024/04/20 09:13:44;;;;;;;2.20;2.00;;;;;;;7.30;68.63;98111.44;5232119;27;20010;-76
2024/04/20 09:16:09;;;;;;;2.20;2.03;;;;;;;7.42;68.83;98088.19;5248190;27;19998;-77
2024/04/20 09:18:35;;;;;;;1.70;1.60;;;;;;;7.31;68.85;98119.22;5213551;27;20057;-77
2024/04/20 09:21:00;;;;;;;1.70;1.60;;;;;;;7.37;68.17;98122.88;5237628;27;19999;-77
2024/04/20 09:23:26;;;;;;;2.03;1.80;;;;;;;7.61;68.13;98127.28;5219126;27;20003;-77
2024/04/20 09:25:52;;;;;;;2.13;1.67;;;;;;;7.63;67.11;98131.38;5238632;27;20021;-76
2024/04/20 09:28:18;;;;;;;1.70;1.60;;;;;;;7.51;67.04;98105.59;5199449;27;20019;-77
2024/04/20 09:30:50;;;;;;;1.73;1.48;;;;;;;7.93;66.64;98136.72;5246502;27;20077;-77
2024/04/20 09:33:15;;;;;;;2.17;1.40;;;;;;;8.00;65.68;98126.72;5227947;27;20000;-77
2024/04/20 09:35:43;;;;;;;1.90;1.48;;;;;;;7.88;65.61;98131.22;5227447;27;20013;-76
2024/04/20 09:38:09;;;;;;;2.28;1.35;;;;;;;7.95;63.38;98142.69;5240227;27;20009;-76
2024/04/20 09:40:36;;;;;;;1.20;1.00;;;;;;;7.63;62.49;98134.03;5226577;27;20010;-76
2024/04/20 09:43:02;;;;;;;1.40;1.15;;;;;;;7.76;62.90;98133.06;5229520;27;20008;-76
2024/04/20 09:45:28;;;;;;;1.50;1.27;;;;;;;8.07;62.78;98143.53;5209564;27;20008;-76
2024/04/20 09:47:56;;;;;;;2.42;1.23;;;;;;;8.32;63.76;98146.88;5221135;27;20019;-77
2024/04/20 09:50:25;;;;;;;1.20;1.10;;;;;;;8.57;63.07;98153.88;5218631;27;20375;-77
2024/04/20 09:53:20;;;;;;;2.55;1.70;;;;;;;8.78;62.44;98147.94;5183384;27;20007;-76
2024/04/20 09:55:47;;;;;;;1.48;1.15;;;;;;;8.80;62.27;98135.09;5189299;27;20451;-77
2024/04/20 09:58:12;;;;;;;1.65;1.38;;;;;;;8.78;60.65;98142.56;5227050;27;20081;-76
2024/04/20 10:00:38;;;;;;;1.67;1.40;;;;;;;8.59;60.17;98155.28;5227336;27;20004;-76
2024/04/20 10:03:05;;;;;;;1.60;1.35;;;;;;;8.50;62.31;98145.13;5209911;27;20002;-76
2024/04/20 10:05:33;;;;;;;5.47;4.00;;;;;;;8.12;64.93;98084.63;5217570;27;20745;-76
2024/04/20 10:08:00;;;;;;;8.00;6.13;;;;;;;8.67;65.43;98170.25;5216733;27;20021;-76
2024/04/20 10:10:27;;;;;;;3.10;2.22;;;;;;;8.73;65.35;98161.25;5234390;27;20011;-77
2024/04/20 10:12:59;;;;;;;3.15;2.53;;;;;;;8.93;64.51;98145.59;5204256;27;20057;-76
2024/04/20 10:15:27;;;;;;;1.88;1.60;;;;;;;9.24;63.54;98136.34;5198581;27;20003;-76
2024/04/20 10:17:53;;;;;;;1.85;1.50;;;;;;;9.47;63.46;98137.09;5240447;27;19999;-77
2024/04/20 10:20:18;;;;;;;1.50;1.40;;;;;;;9.39;62.64;98118.66;5242772;27;20013;-77
2024/04/20 10:22:43;;;;;;;6.00;3.78;;;;;;;9.54;60.88;98137.78;5241453;27;20443;-76
2024/04/20 10:25:10;;;;;;;1.25;1.15;;;;;;;9.34;60.65;98136.53;5212126;27;20022;-76
2024/04/20 10:27:38;;;;;;;2.08;1.40;;;;;;;8.89;58.88;98122.97;5221526;27;19999;-76
2024/04/20 10:30:10;;;;;;;2.88;1.50;;;;;;;8.68;61.15;98178.06;5233353;27;20032;-76
2024/04/20 10:32:35;;;;;;;2.25;1.85;;;;;;;7.81;64.84;98200.22;5234375;27;20672;-75
2024/04/20 10:35:05;;;;;;;2.72;1.80;;;;;;;7.93;65.94;98209.13;5194241;27;20725;-75
2024/04/20 10:37:31;;;;;;;2.22;1.90;;;;;;;7.89;66.67;98207.13;5212121;27;20026;-75
2024/04/20 10:40:13;;;;;;;3.13;2.83;;;;;;;7.91;66.12;98205.81;5222827;27;20018;-76
2024/04/20 10:42:40;;;;;;;2.67;2.08;;;;;;;7.92;66.28;98188.72;5224625;27;20016;-76
2024/04/20 10:45:08;;;;;;;3.88;2.38;;;;;;;8.06;65.77;98192.84;5239298;27;20052;-75
2024/04/20 10:47:33;;;;;;;2.20;2.00;;;;;;;8.15;65.11;98193.31;5213385;27;20004;-75
2024/04/20 10:49:59;;;;;;;2.05;1.60;;;;;;;8.27;65.22;98200.41;5247362;27;20007;-75
2024/04/20 10:52:26;;;;;;;2.50;1.88;;;;;;;8.48;64.78;98180.25;5185884;27;20000;-76
2024/04/20 10:54:51;;;;;;;1.10;1.10;;;;;;;8.81;63.51;98177.00;5205622;27;20007;-75
2024/04/20 10:57:17;;;;;;;2.13;1.30;;;;;;;9.03;61.80;98172.69;5225723;27;20478;-76
2024/04/20 10:59:44;;;;;;;1.20;1.05;;;;;;;9.04;61.36;98180.50;5186648;27;1201807;-76
2024/04/20 11:02:12;;;;;;;1.90;1.55;;;;;;;9.27;61.31;98185.03;5232252;27;20016;-76
2024/04/20 11:04:38;;;;;;;3.88;3.58;;;;;;;9.31;61.37;98180.81;5232523;27;20002;-76
2024/04/20 11:07:04;;;;;;;1.75;1.60;;;;;;;9.66;61.33;98203.06;5232403;27;20019;-76
2024/04/20 11:09:29;;;;;;;1.40;1.30;;;;;;;9.73;59.86;98201.06;5231988;27;20010;-75
2024/04/20 11:12:02;;;;;;;2.75;1.30;;;;;;;9.57;58.90;98207.19;5225535;27;20004;-76
2024/04/20 11:14:28;;;;;;;2.60;1.40;;;;;;;9.25;58.21;98227.44;5233514;27;20017;-76
2024/04/20 11:16:54;;;;;;;1.52;1.33;;;;;;;8.69;57.02;98219.97;5202643;27;20043;-75
2024/04/20 11:19:19;;;;;;;2.30;1.10;;;;;;;8.53;58.00;98226.00;5243096;27;20081;-77
2024/04/20 11:21:45;;;;;;;1.88;1.35;;;;;;;8.69;57.92;98208.41;5214404;27;20003;-76
2024/04/20 11:24:11;;;;;;;2.10;1.40;;;;;;;8.64;58.15;98213.66;5232129;27;20006;-76
2024/04/20 11:26:36;;;;;;;2.10;2.00;;;;;;;8.90;58.42;98229.31;5160055;27;20003;-76
2024/04/20 11:29:01;;;;;;;1.40;1.00;;;;;;;9.11;58.08;98218.00;5234590;27;20102;-76
2024/04/20 11:31:27;;;;;;;2.08;1.38;;;;;;;8.91;58.31;98222.91;5213781;27;20374;-76
2024/04/20 11:33:52;;;;;;;1.75;1.30;;;;;;;8.93;59.22;98194.78;5238581;27;20006;-77
2024/04/20 11:36:18;;;;;;;1.75;1.20;;;;;;;9.09;59.13;98214.72;5229805;27;20376;-75